createdAt,value
2022-08-14T00:00:54.693Z,23.34
2022-08-14T00:01:55.774Z,23.39
2022-08-14T00:02:54.666Z,23.33
2022-08-14T00:03:54.651Z,23.32
2022-08-14T00:04:54.635Z,23.25
2022-08-14T00:05:59.981Z,23.25
2022-08-14T00:06:54.606Z,23.21
2022-08-14T00:07:54.593Z,23.21
2022-08-14T00:08:54.580Z,23.25
2022-08-14T00:09:54.593Z,23.21
2022-08-14T00:10:54.549Z,23.20
2022-08-14T00:11:54.542Z,23.11
2022-08-14T00:12:56.702Z,23.14
2022-08-14T00:13:54.507Z,23.08
2022-08-14T00:14:55.229Z,23.06
2022-08-14T00:15:54.479Z,23.08
2022-08-14T00:16:55.981Z,23.04
2022-08-14T00:17:54.450Z,22.89
2022-08-14T00:19:06.578Z,22.93
2022-08-14T00:19:54.419Z,22.93
2022-08-14T00:20:54.409Z,22.86
2022-08-14T00:21:54.394Z,22.96
2022-08-14T00:22:57.848Z,22.95
2022-08-14T00:23:54.364Z,22.81
2022-08-14T00:24:54.351Z,22.84
2022-08-14T00:26:05.680Z,22.71
2022-08-14T00:26:54.672Z,22.71
2022-08-14T00:27:54.304Z,22.76
2022-08-14T00:28:54.293Z,22.74
2022-08-14T00:29:54.280Z,22.74
2022-08-14T00:30:54.263Z,22.74
2022-08-14T00:31:56.023Z,22.70
2022-08-14T00:33:01.791Z,22.73
2022-08-14T00:33:54.219Z,22.71
2022-08-14T00:34:54.209Z,22.70
2022-08-14T00:36:37.179Z,22.61
2022-08-14T00:36:54.177Z,22.62
2022-08-14T00:37:54.161Z,22.67
2022-08-14T00:38:54.151Z,22.63
2022-08-14T00:39:54.211Z,22.61
2022-08-14T00:40:54.122Z,22.58
2022-08-14T00:41:54.110Z,22.58
2022-08-14T00:43:03.036Z,22.58
2022-08-14T00:43:54.075Z,22.59
2022-08-14T00:44:54.062Z,22.51
2022-08-14T00:45:54.049Z,22.53
2022-08-14T00:46:54.038Z,22.47
2022-08-14T00:47:54.019Z,22.53
2022-08-14T00:48:54.088Z,22.49
2022-08-14T00:49:53.988Z,22.44
2022-08-14T00:50:53.975Z,22.49
2022-08-14T00:51:53.960Z,22.34
2022-08-14T00:52:53.946Z,22.41
2022-08-14T00:53:53.930Z,22.41
2022-08-14T00:54:57.949Z,22.34
2022-08-14T00:55:53.902Z,22.40
2022-08-14T00:56:54.852Z,22.37
2022-08-14T00:57:53.876Z,22.34
2022-08-14T00:58:53.864Z,22.34
2022-08-14T00:59:53.844Z,22.36
2022-08-14T01:00:57.796Z,22.31
2022-08-14T01:01:53.850Z,22.34
2022-08-14T01:02:54.036Z,22.36
2022-08-14T01:03:53.792Z,22.41
2022-08-14T01:04:54.959Z,22.28
2022-08-14T01:05:53.758Z,22.33
2022-08-14T01:06:55.343Z,22.23
2022-08-14T01:07:54.049Z,22.22
2022-08-14T01:08:59.509Z,22.30
2022-08-14T01:09:53.697Z,22.26
2022-08-14T01:10:53.689Z,22.18
2022-08-14T01:12:02.578Z,22.21
2022-08-14T01:12:53.658Z,22.21
2022-08-14T01:13:56.007Z,22.15
2022-08-14T01:14:53.627Z,22.16
2022-08-14T01:15:58.461Z,22.18
2022-08-14T01:16:55.678Z,22.10
2022-08-14T01:17:53.581Z,22.15
2022-08-14T01:19:00.981Z,22.03
2022-08-14T01:19:53.821Z,22.16
2022-08-14T01:20:53.539Z,22.08
2022-08-14T01:21:53.820Z,22.03
2022-08-14T01:22:53.510Z,22.01
2022-08-14T01:23:53.829Z,22.03
2022-08-14T01:24:53.480Z,22.04
2022-08-14T01:25:53.474Z,22.07
2022-08-14T01:26:53.452Z,22.06
2022-08-14T01:27:56.912Z,22.04
2022-08-14T01:28:56.920Z,22.00
2022-08-14T01:30:01.028Z,21.99
2022-08-14T01:30:53.394Z,21.84
2022-08-14T01:31:53.377Z,21.91
2022-08-14T01:32:53.364Z,21.84
2022-08-14T01:35:16.007Z,21.83
2022-08-14T01:35:18.572Z,21.80
2022-08-14T01:36:05.562Z,21.80
2022-08-14T01:36:53.304Z,21.74
2022-08-14T01:37:54.697Z,21.78
2022-08-14T01:38:53.274Z,21.80
2022-08-14T01:39:54.402Z,21.81
2022-08-14T01:40:53.243Z,21.74
2022-08-14T01:41:53.233Z,21.70
2022-08-14T01:42:53.215Z,21.72
2022-08-14T01:43:56.461Z,21.72
2022-08-14T01:44:54.393Z,21.83
2022-08-14T01:46:05.946Z,21.77
2022-08-14T01:46:57.948Z,21.74
2022-08-14T01:48:03.272Z,21.74
2022-08-14T01:48:53.128Z,21.77
2022-08-14T01:50:01.244Z,21.75
2022-08-14T01:50:53.096Z,21.69
2022-08-14T01:51:53.082Z,21.59
2022-08-14T01:52:58.877Z,21.68
2022-08-14T01:53:55.426Z,21.65
2022-08-14T01:54:57.894Z,21.53
2022-08-14T01:55:53.025Z,21.56
2022-08-14T01:56:55.562Z,21.53
2022-08-14T01:58:18.324Z,21.58
2022-08-14T01:58:58.143Z,21.54
2022-08-14T01:59:52.966Z,21.54
2022-08-14T02:00:52.952Z,21.54
2022-08-14T02:01:58.891Z,21.54
2022-08-14T02:02:52.975Z,21.60
2022-08-14T02:03:56.957Z,21.59
2022-08-14T02:04:57.369Z,21.53
2022-08-14T02:05:52.874Z,21.53
2022-08-14T02:06:54.097Z,21.56
2022-08-14T02:07:55.533Z,21.56
2022-08-14T02:08:55.259Z,21.44
2022-08-14T02:09:55.846Z,21.50
2022-08-14T02:10:52.799Z,21.45
2022-08-14T02:11:54.684Z,21.47
2022-08-14T02:12:56.873Z,21.48
2022-08-14T02:13:52.756Z,21.44
2022-08-14T02:15:00.357Z,21.45
2022-08-14T02:15:52.724Z,21.44
2022-08-14T02:16:52.710Z,21.40
2022-08-14T02:17:52.697Z,21.40
2022-08-14T02:18:52.679Z,21.37
2022-08-14T02:19:52.666Z,21.26
2022-08-14T02:20:52.649Z,21.32
2022-08-14T02:21:52.636Z,21.26
2022-08-14T02:22:52.623Z,21.28
2022-08-14T02:23:53.573Z,21.19
2022-08-14T02:24:52.795Z,21.17
2022-08-14T02:25:54.616Z,21.08
2022-08-14T02:28:19.308Z,21.19
2022-08-14T02:28:25.153Z,21.14
2022-08-14T02:28:57.618Z,21.08
2022-08-14T02:29:59.091Z,21.11
2022-08-14T02:30:52.864Z,21.10
2022-08-14T02:31:52.485Z,21.17
2022-08-14T02:32:52.469Z,21.19
2022-08-14T02:33:52.456Z,21.14
2022-08-14T02:34:52.442Z,21.13
2022-08-14T02:35:53.265Z,21.10
2022-08-14T02:37:03.866Z,21.11
2022-08-14T02:37:52.395Z,21.14
2022-08-14T02:38:52.380Z,21.04
2022-08-14T02:39:52.422Z,21.14
2022-08-14T02:40:52.348Z,21.10
2022-08-14T02:41:58.224Z,21.11
2022-08-14T02:42:54.950Z,21.13
2022-08-14T02:43:52.303Z,21.14
2022-08-14T02:44:52.290Z,21.14
2022-08-14T02:45:52.274Z,21.08
2022-08-14T02:46:52.257Z,21.11
2022-08-14T02:47:53.744Z,21.08
2022-08-14T02:49:01.651Z,21.20
2022-08-14T02:49:54.923Z,21.20
2022-08-14T02:50:53.554Z,21.23
2022-08-14T02:51:52.185Z,21.23
2022-08-14T02:52:57.411Z,21.20
2022-08-14T02:53:52.152Z,21.23
2022-08-14T02:54:52.144Z,21.25
2022-08-14T02:55:52.459Z,21.29
2022-08-14T02:57:15.335Z,21.26
2022-08-14T02:58:02.919Z,21.30
2022-08-14T02:58:55.571Z,21.38
2022-08-14T02:59:52.064Z,21.38
2022-08-14T03:00:52.113Z,21.38
2022-08-14T03:01:54.868Z,21.38
2022-08-14T03:02:58.928Z,21.45
2022-08-14T03:03:52.001Z,21.43
2022-08-14T03:04:51.985Z,21.45
2022-08-14T03:05:51.973Z,21.37
2022-08-14T03:07:06.576Z,21.41
2022-08-14T03:07:53.041Z,21.35
2022-08-14T03:08:51.926Z,21.35
2022-08-14T03:10:25.866Z,21.26
2022-08-14T03:10:51.894Z,21.26
2022-08-14T03:11:51.881Z,21.22
2022-08-14T03:12:51.865Z,21.25
2022-08-14T03:13:51.851Z,21.08
2022-08-14T03:14:51.834Z,21.13
2022-08-14T03:15:55.018Z,21.03
2022-08-14T03:16:51.804Z,21.04
2022-08-14T03:17:57.789Z,20.96
2022-08-14T03:18:52.330Z,20.96
2022-08-14T03:19:51.758Z,20.96
2022-08-14T03:20:51.743Z,20.88
2022-08-14T03:21:53.000Z,20.92
2022-08-14T03:22:51.713Z,20.95
2022-08-14T03:23:51.698Z,20.88
2022-08-14T03:24:51.803Z,20.90
2022-08-14T03:25:51.669Z,20.88
2022-08-14T03:26:57.361Z,20.85
2022-08-14T03:27:59.037Z,20.85
2022-08-14T03:28:51.624Z,20.82
2022-08-14T03:29:51.609Z,20.83
2022-08-14T03:30:51.595Z,20.83
2022-08-14T03:31:51.576Z,20.78
2022-08-14T03:32:51.561Z,20.75
2022-08-14T03:33:51.636Z,20.73
2022-08-14T03:34:55.663Z,20.82
2022-08-14T03:35:59.810Z,20.73
2022-08-14T03:37:39.395Z,20.82
2022-08-14T03:39:10.557Z,20.78
2022-08-14T03:39:15.184Z,20.71
2022-08-14T03:39:51.477Z,20.75
2022-08-14T03:40:51.438Z,20.73
2022-08-14T03:41:51.431Z,20.68
2022-08-14T03:42:51.409Z,20.74
2022-08-14T03:43:57.901Z,20.73
2022-08-14T03:45:20.371Z,20.71
2022-08-14T03:45:51.366Z,20.75
2022-08-14T03:46:54.361Z,20.75
2022-08-14T03:47:58.356Z,20.78
2022-08-14T03:48:54.223Z,20.78
2022-08-14T03:49:51.302Z,20.70
2022-08-14T03:50:51.286Z,20.75
2022-08-14T03:51:51.272Z,20.70
2022-08-14T03:52:55.975Z,20.67
2022-08-14T03:53:51.239Z,20.67
2022-08-14T03:54:52.617Z,20.59
2022-08-14T03:55:51.211Z,20.58
2022-08-14T03:56:51.196Z,20.55
2022-08-14T03:57:51.180Z,20.50
2022-08-14T03:58:51.163Z,20.52
2022-08-14T03:59:51.149Z,20.56
2022-08-14T04:00:51.193Z,20.50
2022-08-14T04:01:58.184Z,20.55
2022-08-14T04:02:53.469Z,20.44
2022-08-14T04:03:51.086Z,20.46
2022-08-14T04:04:51.071Z,20.33
2022-08-14T04:05:51.083Z,20.32
2022-08-14T04:06:51.039Z,20.33
2022-08-14T04:08:08.317Z,20.33
2022-08-14T04:08:51.012Z,20.27
2022-08-14T04:09:50.994Z,20.29
2022-08-14T04:10:50.983Z,20.29
2022-08-14T04:11:50.971Z,20.24
2022-08-14T04:12:51.752Z,20.30
2022-08-14T04:13:50.932Z,20.29
2022-08-14T04:14:50.917Z,20.29
2022-08-14T04:16:01.421Z,20.22
2022-08-14T04:16:50.892Z,20.26
2022-08-14T04:17:50.871Z,20.21
2022-08-14T04:18:50.856Z,20.18
2022-08-14T04:19:50.841Z,20.18
2022-08-14T04:20:54.269Z,20.15
2022-08-14T04:22:02.408Z,20.22
2022-08-14T04:22:50.792Z,20.17
2022-08-14T04:23:57.874Z,20.17
2022-08-14T04:24:50.764Z,20.14
2022-08-14T04:25:50.748Z,20.24
2022-08-14T04:26:50.732Z,20.22
2022-08-14T04:28:02.202Z,20.18
2022-08-14T04:29:06.891Z,20.21
2022-08-14T04:29:50.687Z,20.19
2022-08-14T04:30:50.671Z,20.08
2022-08-14T04:32:57.335Z,20.19
2022-08-14T04:33:10.369Z,20.15
2022-08-14T04:33:50.624Z,20.14
2022-08-14T04:34:52.141Z,20.11
2022-08-14T04:35:56.115Z,20.17
2022-08-14T04:36:50.575Z,20.12
2022-08-14T04:37:53.805Z,20.11
2022-08-14T04:38:50.546Z,20.04
2022-08-14T04:39:56.912Z,20.07
2022-08-14T04:40:50.514Z,20.11
2022-08-14T04:41:50.500Z,20.15
2022-08-14T04:42:51.521Z,20.18
2022-08-14T04:43:50.470Z,20.14
2022-08-14T04:44:51.477Z,20.10
2022-08-14T04:45:51.074Z,20.19
2022-08-14T04:46:55.709Z,20.19
2022-08-14T04:47:53.555Z,20.14
2022-08-14T04:48:51.342Z,20.21
2022-08-14T04:49:57.281Z,20.19
2022-08-14T04:50:54.062Z,20.19
2022-08-14T04:51:55.909Z,20.15
2022-08-14T04:52:54.011Z,20.19
2022-08-14T04:53:50.313Z,20.18
2022-08-14T04:54:50.295Z,20.17
2022-08-14T04:55:51.636Z,20.18
2022-08-14T04:56:50.266Z,20.17
2022-08-14T04:57:50.251Z,20.21
2022-08-14T04:58:50.233Z,20.21
2022-08-14T04:59:50.910Z,20.19
2022-08-14T05:00:50.203Z,20.27
2022-08-14T05:01:52.891Z,20.22
2022-08-14T05:02:50.170Z,20.22
2022-08-14T05:03:50.629Z,20.24
2022-08-14T05:04:57.390Z,20.26
2022-08-14T05:05:50.125Z,20.26
2022-08-14T05:06:53.673Z,20.27
2022-08-14T05:08:01.312Z,20.24
2022-08-14T05:09:00.130Z,20.22
2022-08-14T05:09:50.071Z,20.29
2022-08-14T05:10:50.045Z,20.27
2022-08-14T05:11:50.030Z,20.27
2022-08-14T05:13:11.196Z,20.29
2022-08-14T05:14:54.623Z,20.32
2022-08-14T05:15:49.969Z,20.29
2022-08-14T05:16:49.951Z,20.36
2022-08-14T05:17:58.878Z,20.37
2022-08-14T05:19:24.712Z,20.36
2022-08-14T05:20:33.469Z,20.46
2022-08-14T05:21:57.330Z,20.48
2022-08-14T05:21:58.223Z,20.46
2022-08-14T05:22:55.627Z,20.46
2022-08-14T05:23:49.843Z,20.44
2022-08-14T05:24:51.157Z,20.37
2022-08-14T05:25:49.813Z,20.52
2022-08-14T05:26:49.796Z,20.42
2022-08-14T05:27:49.784Z,20.52
2022-08-14T05:28:49.772Z,20.44
2022-08-14T05:29:49.749Z,20.60
2022-08-14T05:30:49.746Z,20.60
2022-08-14T05:31:50.466Z,20.59
2022-08-14T05:32:49.700Z,20.58
2022-08-14T05:33:56.737Z,20.58
2022-08-14T05:34:49.670Z,20.60
2022-08-14T05:35:49.654Z,20.66
2022-08-14T05:36:50.419Z,20.68
2022-08-14T05:37:49.626Z,20.73
2022-08-14T05:38:49.611Z,20.74
2022-08-14T05:39:49.620Z,20.78
2022-08-14T05:40:49.578Z,20.77
2022-08-14T05:41:53.781Z,20.74
2022-08-14T05:42:52.847Z,20.86
2022-08-14T05:43:49.550Z,20.88
2022-08-14T05:44:49.516Z,20.83
2022-08-14T05:45:49.501Z,20.86
2022-08-14T05:46:49.483Z,20.92
2022-08-14T05:47:50.720Z,20.85
2022-08-14T05:48:49.453Z,20.98
2022-08-14T05:49:49.435Z,20.98
2022-08-14T05:50:49.421Z,21.05
2022-08-14T05:51:49.406Z,21.13
2022-08-14T05:52:49.498Z,21.13
2022-08-14T05:54:00.189Z,21.17
2022-08-14T05:54:49.361Z,21.13
2022-08-14T05:55:49.340Z,21.25
2022-08-14T05:56:49.329Z,21.30
2022-08-14T05:57:49.312Z,21.25
2022-08-14T05:58:49.296Z,21.35
2022-08-14T05:59:49.280Z,21.44
2022-08-14T06:00:49.267Z,21.44
2022-08-14T06:01:50.510Z,21.54
2022-08-14T06:02:49.237Z,21.51
2022-08-14T06:03:49.222Z,21.58
2022-08-14T06:04:49.378Z,21.54
2022-08-14T06:05:51.409Z,21.60
2022-08-14T06:06:49.175Z,21.62
2022-08-14T06:07:49.156Z,21.68
2022-08-14T06:08:49.143Z,21.77
2022-08-14T06:09:50.916Z,21.80
2022-08-14T06:10:49.113Z,21.81
2022-08-14T06:11:49.733Z,21.78
2022-08-14T06:12:56.704Z,21.83
2022-08-14T06:13:49.067Z,21.83
2022-08-14T06:14:49.052Z,21.96
2022-08-14T06:15:49.033Z,21.94
2022-08-14T06:16:49.030Z,22.06
2022-08-14T06:17:58.592Z,22.06
2022-08-14T06:18:52.418Z,22.07
2022-08-14T06:19:48.972Z,22.12
2022-08-14T06:20:48.958Z,22.14
2022-08-14T06:21:51.093Z,22.21
2022-08-14T06:22:49.004Z,22.26
2022-08-14T06:23:49.279Z,22.22
2022-08-14T06:24:48.897Z,22.40
2022-08-14T06:25:52.783Z,22.33
2022-08-14T06:26:54.182Z,22.34
2022-08-14T06:27:48.849Z,22.43
2022-08-14T06:28:51.744Z,22.49
2022-08-14T06:29:48.817Z,22.53
2022-08-14T06:30:48.805Z,22.55
2022-08-14T06:32:00.266Z,22.59
2022-08-14T06:32:52.889Z,22.62
2022-08-14T06:35:04.125Z,22.65
2022-08-14T06:35:09.624Z,22.70
2022-08-14T06:35:48.726Z,22.67
2022-08-14T06:36:48.712Z,22.67
2022-08-14T06:37:48.698Z,22.70
2022-08-14T06:38:50.280Z,22.77
2022-08-14T06:39:48.711Z,22.78
2022-08-14T06:40:48.650Z,22.68
2022-08-14T06:41:57.681Z,22.73
2022-08-14T06:42:49.431Z,22.89
2022-08-14T06:43:48.604Z,22.78
2022-08-14T06:44:48.591Z,22.81
2022-08-14T06:45:50.195Z,22.83
2022-08-14T06:46:49.389Z,22.81
2022-08-14T06:47:48.542Z,22.95
2022-08-14T06:48:48.528Z,22.89
2022-08-14T06:49:57.884Z,22.92
2022-08-14T06:50:48.501Z,23.06
2022-08-14T06:51:49.882Z,23.01
2022-08-14T06:52:50.077Z,23.02
2022-08-14T06:53:48.450Z,23.02
2022-08-14T06:54:48.439Z,23.08
2022-08-14T06:55:58.212Z,23.04
2022-08-14T06:56:54.454Z,23.08
2022-08-14T06:57:48.389Z,23.14
2022-08-14T06:58:48.377Z,23.14
2022-08-14T06:59:48.358Z,23.16
2022-08-14T07:00:48.346Z,23.16
2022-08-14T07:01:48.371Z,23.25
2022-08-14T07:02:48.320Z,23.23
2022-08-14T07:03:48.297Z,23.28
2022-08-14T07:04:48.283Z,23.39
2022-08-14T07:05:57.619Z,23.39
2022-08-14T07:06:48.254Z,23.32
2022-08-14T07:07:48.237Z,23.40
2022-08-14T07:08:48.223Z,23.39
2022-08-14T07:09:51.044Z,23.39
2022-08-14T07:10:48.195Z,23.54
2022-08-14T07:11:48.175Z,23.42
2022-08-14T07:12:54.963Z,23.39
2022-08-14T07:13:48.723Z,23.44
2022-08-14T07:14:48.132Z,23.44
2022-08-14T07:15:48.117Z,23.55
2022-08-14T07:16:48.103Z,23.55
2022-08-14T07:17:52.419Z,23.64
2022-08-14T07:18:50.932Z,23.64
2022-08-14T07:19:48.055Z,23.66
2022-08-14T07:20:48.040Z,23.69
2022-08-14T07:21:48.029Z,23.67
2022-08-14T07:22:56.222Z,23.76
2022-08-14T07:23:47.996Z,23.73
2022-08-14T07:24:47.980Z,23.76
2022-08-14T07:25:47.962Z,23.79
2022-08-14T07:26:47.952Z,23.81
2022-08-14T07:27:47.934Z,23.86
2022-08-14T07:28:47.921Z,23.88
2022-08-14T07:29:47.906Z,23.88
2022-08-14T07:30:50.754Z,23.88
2022-08-14T07:31:47.874Z,23.89
2022-08-14T07:32:48.221Z,23.95
2022-08-14T07:33:50.272Z,23.94
2022-08-14T07:34:47.832Z,24.00
2022-08-14T07:35:58.326Z,23.88
2022-08-14T07:36:58.196Z,24.06
2022-08-14T07:37:47.783Z,24.03
2022-08-14T07:38:52.249Z,24.09
2022-08-14T07:39:47.816Z,24.07
2022-08-14T07:40:47.740Z,24.19
2022-08-14T07:41:47.723Z,24.21
2022-08-14T07:42:47.710Z,24.25
2022-08-14T07:43:55.615Z,24.26
2022-08-14T07:44:50.524Z,24.19
2022-08-14T07:45:47.664Z,24.31
2022-08-14T07:46:47.651Z,24.29
2022-08-14T07:47:47.631Z,24.28
2022-08-14T07:48:48.134Z,24.28
2022-08-14T07:49:47.606Z,24.26
2022-08-14T07:50:47.591Z,24.28
2022-08-14T07:51:49.685Z,24.38
2022-08-14T07:52:47.566Z,24.44
2022-08-14T07:53:47.545Z,24.44
2022-08-14T07:54:47.531Z,24.53
2022-08-14T07:56:00.456Z,24.53
2022-08-14T07:56:49.977Z,24.58
2022-08-14T07:57:47.486Z,24.63
2022-08-14T07:58:51.549Z,24.59
2022-08-14T07:59:49.487Z,24.66
2022-08-14T08:00:51.480Z,24.63
2022-08-14T08:01:47.977Z,24.62
2022-08-14T08:02:51.718Z,24.75
2022-08-14T08:03:49.487Z,24.74
2022-08-14T08:04:47.381Z,24.75
2022-08-14T08:05:47.367Z,24.77
2022-08-14T08:06:47.354Z,24.85
2022-08-14T08:07:47.335Z,24.81
2022-08-14T08:08:47.381Z,24.79
2022-08-14T08:09:47.306Z,24.75
2022-08-14T08:11:02.744Z,24.82
2022-08-14T08:11:47.277Z,24.89
2022-08-14T08:12:47.264Z,24.88
2022-08-14T08:13:48.980Z,24.96
2022-08-14T08:14:56.291Z,24.96
2022-08-14T08:15:47.220Z,24.85
2022-08-14T08:16:47.208Z,25.03
2022-08-14T08:17:53.703Z,25.14
2022-08-14T08:18:47.178Z,25.11
2022-08-14T08:19:47.160Z,25.01
2022-08-14T08:20:52.190Z,25.16
2022-08-14T08:21:47.150Z,25.21
2022-08-14T08:22:47.976Z,25.22
2022-08-14T08:23:51.242Z,25.21
2022-08-14T08:24:47.088Z,25.16
2022-08-14T08:25:47.071Z,25.19
2022-08-14T08:26:47.060Z,25.26
2022-08-14T08:27:47.042Z,25.31
2022-08-14T08:28:47.031Z,25.33
2022-08-14T08:29:50.882Z,25.34
2022-08-14T08:30:49.985Z,25.43
2022-08-14T08:31:51.103Z,25.44
2022-08-14T08:32:47.019Z,25.44
2022-08-14T08:33:49.675Z,25.51
2022-08-14T08:34:46.973Z,25.52
2022-08-14T08:35:50.484Z,25.46
2022-08-14T08:36:46.986Z,25.46
2022-08-14T08:37:46.898Z,25.48
2022-08-14T08:39:17.839Z,25.54
2022-08-14T08:40:03.487Z,25.61
2022-08-14T08:40:46.889Z,25.62
2022-08-14T08:41:49.420Z,25.73
2022-08-14T08:42:46.977Z,25.67
2022-08-14T08:43:47.252Z,25.66
2022-08-14T08:44:46.797Z,25.68
2022-08-14T08:45:46.783Z,25.77
2022-08-14T08:46:48.042Z,25.77
2022-08-14T08:47:46.752Z,25.77
2022-08-14T08:48:50.366Z,25.78
2022-08-14T08:49:59.066Z,25.80
2022-08-14T08:50:46.714Z,25.71
2022-08-14T08:51:46.696Z,25.76
2022-08-14T08:52:46.927Z,25.74
2022-08-14T08:53:46.669Z,25.80
2022-08-14T08:54:46.657Z,25.81
2022-08-14T08:55:46.638Z,25.81
2022-08-14T08:56:46.625Z,25.96
2022-08-14T08:57:46.609Z,25.86
2022-08-14T08:58:46.596Z,25.95
2022-08-14T08:59:46.580Z,26.01
2022-08-14T09:00:46.621Z,26.04
2022-08-14T09:01:46.555Z,26.16
2022-08-14T09:02:46.582Z,26.16
2022-08-14T09:03:46.531Z,26.11
2022-08-14T09:04:53.541Z,26.16
2022-08-14T09:05:46.496Z,26.11
2022-08-14T09:07:09.029Z,26.29
2022-08-14T09:07:46.468Z,26.24
2022-08-14T09:08:46.455Z,26.23
2022-08-14T09:09:54.490Z,26.27
2022-08-14T09:10:46.428Z,26.31
2022-08-14T09:11:46.414Z,26.24
2022-08-14T09:12:46.587Z,26.31
2022-08-14T09:13:46.381Z,26.33
2022-08-14T09:14:46.490Z,26.36
2022-08-14T09:15:46.351Z,26.27
2022-08-14T09:16:48.400Z,26.41
2022-08-14T09:17:46.410Z,26.42
2022-08-14T09:18:46.313Z,26.46
2022-08-14T09:19:46.297Z,26.52
2022-08-14T09:20:46.283Z,26.60
2022-08-14T09:21:46.268Z,26.53
2022-08-14T09:22:48.225Z,26.67
2022-08-14T09:24:26.652Z,26.66
2022-08-14T09:24:46.226Z,26.70
2022-08-14T09:26:00.900Z,26.79
2022-08-14T09:26:49.305Z,26.81
2022-08-14T09:27:46.183Z,26.88
2022-08-14T09:28:46.171Z,26.81
2022-08-14T09:29:46.155Z,26.83
2022-08-14T09:30:46.145Z,26.86
2022-08-14T09:31:52.871Z,26.91
2022-08-14T09:32:59.264Z,26.97
2022-08-14T09:33:56.042Z,26.97
2022-08-14T09:34:58.512Z,26.97
2022-08-14T09:35:46.075Z,26.92
2022-08-14T09:36:46.058Z,26.96
2022-08-14T09:37:46.043Z,27.03
2022-08-14T09:38:46.030Z,27.04
2022-08-14T09:39:46.040Z,27.13
2022-08-14T09:40:47.742Z,27.15
2022-08-14T09:42:20.691Z,27.23
2022-08-14T09:42:50.237Z,27.25
2022-08-14T09:43:45.960Z,27.33
2022-08-14T09:44:46.127Z,27.28
2022-08-14T09:45:53.231Z,27.34
2022-08-14T09:46:49.846Z,27.43
2022-08-14T09:47:45.903Z,27.44
2022-08-14T09:48:45.891Z,27.48
2022-08-14T09:49:53.177Z,27.50
2022-08-14T09:50:45.862Z,27.68
2022-08-14T09:51:51.862Z,27.75
2022-08-14T09:52:47.038Z,27.93
2022-08-14T09:54:18.741Z,28.12
2022-08-14T09:54:45.821Z,28.28
2022-08-14T09:55:45.794Z,28.46
2022-08-14T09:56:45.786Z,28.67
2022-08-14T09:57:46.000Z,28.78
2022-08-14T09:58:45.754Z,28.90
2022-08-14T09:59:45.739Z,28.97
2022-08-14T10:00:45.728Z,29.30
2022-08-14T10:01:46.125Z,29.47
2022-08-14T10:02:46.315Z,29.58
2022-08-14T10:03:45.687Z,29.69
2022-08-14T10:04:45.990Z,29.92
2022-08-14T10:05:45.664Z,29.96
2022-08-14T10:06:45.650Z,30.08
2022-08-14T10:07:47.505Z,30.05
2022-08-14T10:08:45.620Z,30.21
2022-08-14T10:09:45.611Z,30.48
2022-08-14T10:10:45.595Z,30.51
2022-08-14T10:11:45.845Z,30.63
2022-08-14T10:12:45.766Z,30.81
2022-08-14T10:13:53.233Z,31.02
2022-08-14T10:14:45.691Z,31.10
2022-08-14T10:15:45.532Z,31.11
2022-08-14T10:16:45.518Z,31.10
2022-08-14T10:17:46.299Z,31.20
2022-08-14T10:18:45.493Z,31.29
2022-08-14T10:19:45.480Z,31.44
2022-08-14T10:20:49.827Z,31.60
2022-08-14T10:21:58.274Z,31.63
2022-08-14T10:23:12.914Z,31.62
2022-08-14T10:23:45.467Z,31.70
2022-08-14T10:24:45.418Z,31.81
2022-08-14T10:25:45.406Z,31.78
2022-08-14T10:26:45.397Z,31.98
2022-08-14T10:27:45.383Z,32.08
2022-08-14T10:29:17.541Z,31.98
2022-08-14T10:29:45.359Z,31.93
2022-08-14T10:30:45.345Z,31.82
2022-08-14T10:31:45.822Z,31.81
2022-08-14T10:32:51.132Z,31.82
2022-08-14T10:33:50.818Z,31.89
2022-08-14T10:34:45.296Z,32.09
2022-08-14T10:35:48.325Z,32.11
2022-08-14T10:36:47.813Z,32.35
2022-08-14T10:37:45.262Z,32.11
2022-08-14T10:38:50.486Z,31.93
2022-08-14T10:40:01.359Z,31.86
2022-08-14T10:40:52.204Z,31.89
2022-08-14T10:41:48.448Z,31.89
2022-08-14T10:42:45.430Z,32.08
2022-08-14T10:43:45.191Z,32.15
2022-08-14T10:44:45.176Z,32.37
2022-08-14T10:45:46.509Z,32.41
2022-08-14T10:47:39.363Z,32.63
2022-08-14T10:48:08.196Z,32.72
2022-08-14T10:48:45.841Z,32.71
2022-08-14T10:49:45.123Z,32.71
2022-08-14T10:50:45.110Z,32.71
2022-08-14T10:51:45.099Z,32.93
2022-08-14T10:52:45.331Z,33.03
2022-08-14T10:53:45.077Z,33.12
2022-08-14T10:54:47.461Z,33.01
2022-08-14T10:55:45.993Z,33.03
2022-08-14T10:56:45.039Z,33.16
2022-08-14T10:57:45.031Z,33.01
2022-08-14T10:58:45.015Z,33.01
2022-08-14T10:59:45.007Z,33.04
2022-08-14T11:00:47.259Z,33.12
2022-08-14T11:01:44.985Z,33.12
2022-08-14T11:02:55.251Z,33.15
2022-08-14T11:03:56.630Z,33.16
2022-08-14T11:04:44.976Z,33.15
2022-08-14T11:05:44.939Z,33.04
2022-08-14T11:06:44.924Z,32.81
2022-08-14T11:07:44.917Z,32.38
2022-08-14T11:08:45.649Z,32.02
2022-08-14T11:09:44.892Z,31.79
2022-08-14T11:10:44.903Z,31.63
2022-08-14T11:11:44.874Z,31.52
2022-08-14T11:12:44.959Z,31.37
2022-08-14T11:13:44.855Z,31.59
2022-08-14T11:14:44.841Z,31.92
2022-08-14T11:15:44.825Z,31.95
2022-08-14T11:16:48.944Z,32.15
2022-08-14T11:17:45.923Z,32.26
2022-08-14T11:18:44.790Z,32.31
2022-08-14T11:19:44.779Z,32.39
2022-08-14T11:20:44.766Z,32.38
2022-08-14T11:21:46.600Z,32.51
2022-08-14T11:22:56.572Z,32.38
2022-08-14T11:23:44.735Z,32.46
2022-08-14T11:24:50.952Z,32.41
2022-08-14T11:25:53.228Z,32.35
2022-08-14T11:26:44.699Z,32.31
2022-08-14T11:27:44.688Z,32.27
2022-08-14T11:28:46.331Z,32.20
2022-08-14T11:29:44.668Z,32.12
2022-08-14T11:30:51.678Z,32.00
2022-08-14T11:31:44.643Z,31.90
2022-08-14T11:32:44.869Z,31.90
2022-08-14T11:33:44.623Z,31.92
2022-08-14T11:34:44.608Z,31.74
2022-08-14T11:35:48.288Z,31.78
2022-08-14T11:37:02.231Z,31.79
2022-08-14T11:37:44.575Z,31.63
2022-08-14T11:38:45.070Z,31.66
2022-08-14T11:39:45.585Z,31.63
2022-08-14T11:40:47.029Z,31.45
2022-08-14T11:41:55.828Z,31.50
2022-08-14T11:42:58.143Z,31.42
2022-08-14T11:43:49.477Z,31.47
2022-08-14T11:44:46.055Z,31.35
2022-08-14T11:45:44.484Z,31.37
2022-08-14T11:46:44.471Z,31.36
2022-08-14T11:48:13.428Z,31.39
2022-08-14T11:49:02.327Z,31.39
2022-08-14T11:49:44.438Z,31.39
2022-08-14T11:50:44.423Z,31.32
2022-08-14T11:51:53.966Z,31.29
2022-08-14T11:52:44.404Z,31.20
2022-08-14T11:53:44.692Z,31.26
2022-08-14T11:54:44.376Z,31.18
2022-08-14T11:55:44.364Z,31.17
2022-08-14T11:56:44.356Z,31.17
2022-08-14T11:57:44.341Z,31.05
2022-08-14T11:58:44.326Z,31.00
2022-08-14T11:59:44.523Z,30.86
2022-08-14T12:00:46.114Z,30.77
2022-08-14T12:01:44.296Z,30.74
2022-08-14T12:03:02.829Z,30.52
2022-08-14T12:03:51.368Z,30.54
2022-08-14T12:04:44.327Z,30.46
2022-08-14T12:05:44.249Z,30.51
2022-08-14T12:06:44.234Z,30.51
2022-08-14T12:07:44.364Z,30.43
2022-08-14T12:08:44.214Z,30.36
2022-08-14T12:09:44.201Z,30.39
2022-08-14T12:10:44.250Z,30.46
2022-08-14T12:11:47.263Z,30.54
2022-08-14T12:12:44.161Z,30.52
2022-08-14T12:13:44.253Z,30.49
2022-08-14T12:14:44.418Z,30.48
2022-08-14T12:15:44.798Z,30.55
2022-08-14T12:16:44.115Z,30.51
2022-08-14T12:17:47.473Z,30.55
2022-08-14T12:18:44.837Z,30.54
2022-08-14T12:19:44.079Z,30.59
2022-08-14T12:20:45.968Z,30.61
2022-08-14T12:21:48.150Z,30.56
2022-08-14T12:22:44.223Z,30.55
2022-08-14T12:23:44.032Z,30.58
2022-08-14T12:24:44.019Z,30.67
2022-08-14T12:25:44.009Z,30.69
2022-08-14T12:26:43.995Z,30.71
2022-08-14T12:27:52.493Z,30.77
2022-08-14T12:28:59.965Z,30.69
2022-08-14T12:29:43.961Z,30.59
2022-08-14T12:30:44.050Z,30.58
2022-08-14T12:31:44.745Z,30.62
2022-08-14T12:32:43.923Z,30.62
2022-08-14T12:33:46.916Z,30.56
2022-08-14T12:34:45.295Z,30.62
2022-08-14T12:35:43.891Z,30.54
2022-08-14T12:36:43.874Z,30.58
2022-08-14T12:37:43.866Z,30.59
2022-08-14T12:38:45.072Z,30.61
2022-08-14T12:39:43.859Z,30.58
2022-08-14T12:40:43.827Z,30.61
2022-08-14T12:41:43.817Z,30.65
2022-08-14T12:42:52.687Z,30.62
2022-08-14T12:43:43.794Z,30.59
2022-08-14T12:44:43.780Z,30.69
2022-08-14T12:45:43.774Z,30.67
2022-08-14T12:46:46.861Z,30.61
2022-08-14T12:47:43.744Z,30.51
2022-08-14T12:48:43.734Z,30.52
2022-08-14T12:49:43.734Z,30.49
2022-08-14T12:50:43.713Z,30.59
2022-08-14T12:51:43.701Z,30.69
2022-08-14T12:53:02.046Z,30.81
2022-08-14T12:53:43.675Z,30.78